sensor_id;sensor_type;location;lat;lon;timestamp;P1;durP1;ratioP1;P2;durP2;ratioP2
56455;SDS011;42354;53.218;6.564;2023-04-03T00:00:40;3.10;;;1.10;;
56455;SDS011;42354;53.218;6.564;2023-04-03T00:03:07;2.28;;;1.20;;
56455;SDS011;42354;53.218;6.564;2023-04-03T00:05:32;2.50;;;0.80;;
56455;SDS011;42354;53.218;6.564;2023-04-03T00:07:58;1.73;;;0.82;;
56455;SDS011;42354;53.218;6.564;2023-04-03T00:10:23;4.93;;;0.73;;
56455;SDS011;42354;53.218;6.564;2023-04-03T00:12:49;2.05;;;0.82;;
56455;SDS011;42354;53.218;6.564;2023-04-03T00:15:14;2.38;;;0.90;;
56455;SDS011;42354;53.218;6.564;2023-04-03T00:17:40;2.80;;;1.00;;
56455;SDS011;42354;53.218;6.564;2023-04-03T00:20:06;4.00;;;1.23;;
56455;SDS011;42354;53.218;6.564;2023-04-03T00:22:31;3.13;;;0.90;;
56455;SDS011;42354;53.218;6.564;2023-04-03T00:24:57;3.30;;;0.82;;
56455;SDS011;42354;53.218;6.564;2023-04-03T00:27:22;3.45;;;0.80;;
56455;SDS011;42354;53.218;6.564;2023-04-03T00:29:48;3.40;;;1.02;;
56455;SDS011;42354;53.218;6.564;2023-04-03T00:32:13;4.43;;;1.00;;
56455;SDS011;42354;53.218;6.564;2023-04-03T00:34:39;4.88;;;1.05;;
56455;SDS011;42354;53.218;6.564;2023-04-03T00:37:05;5.05;;;0.90;;
56455;SDS011;42354;53.218;6.564;2023-04-03T00:39:31;4.72;;;1.20;;
56455;SDS011;42354;53.218;6.564;2023-04-03T00:41:56;1.80;;;0.70;;
56455;SDS011;42354;53.218;6.564;2023-04-03T00:44:23;4.53;;;1.20;;
56455;SDS011;42354;53.218;6.564;2023-04-03T00:47:08;3.22;;;1.02;;
56455;SDS011;42354;53.218;6.564;2023-04-03T00:49:37;4.38;;;0.98;;
56455;SDS011;42354;53.218;6.564;2023-04-03T00:52:03;1.88;;;0.80;;
56455;SDS011;42354;53.218;6.564;2023-04-03T00:54:32;5.13;;;0.90;;
56455;SDS011;42354;53.218;6.564;2023-04-03T00:57:00;4.05;;;1.15;;
56455;SDS011;42354;53.218;6.564;2023-04-03T00:59:29;2.55;;;0.82;;
56455;SDS011;42354;53.218;6.564;2023-04-03T01:01:57;2.95;;;1.10;;
56455;SDS011;42354;53.218;6.564;2023-04-03T01:07:01;2.67;;;0.90;;
56455;SDS011;42354;53.218;6.564;2023-04-03T01:09:30;4.03;;;1.08;;
56455;SDS011;42354;53.218;6.564;2023-04-03T01:12:58;5.18;;;1.13;;
56455;SDS011;42354;53.218;6.564;2023-04-03T01:15:02;5.07;;;1.13;;
56455;SDS011;42354;53.218;6.564;2023-04-03T01:17:37;4.35;;;1.27;;
56455;SDS011;42354;53.218;6.564;2023-04-03T01:25:14;7.78;;;1.35;;
56455;SDS011;42354;53.218;6.564;2023-04-03T01:27:40;6.75;;;1.48;;
56455;SDS011;42354;53.218;6.564;2023-04-03T01:30:05;4.43;;;1.27;;
56455;SDS011;42354;53.218;6.564;2023-04-03T01:32:31;6.05;;;1.23;;
56455;SDS011;42354;53.218;6.564;2023-04-03T01:34:57;6.35;;;1.05;;
56455;SDS011;42354;53.218;6.564;2023-04-03T01:37:22;7.28;;;1.10;;
56455;SDS011;42354;53.218;6.564;2023-04-03T01:39:47;8.75;;;1.15;;
56455;SDS011;42354;53.218;6.564;2023-04-03T01:42:13;7.78;;;1.42;;
56455;SDS011;42354;53.218;6.564;2023-04-03T01:44:38;5.28;;;1.67;;
56455;SDS011;42354;53.218;6.564;2023-04-03T01:47:05;3.08;;;1.08;;
56455;SDS011;42354;53.218;6.564;2023-04-03T01:49:33;4.32;;;1.30;;
56455;SDS011;42354;53.218;6.564;2023-04-03T01:51:58;5.53;;;1.52;;
56455;SDS011;42354;53.218;6.564;2023-04-03T01:54:24;4.18;;;1.40;;
56455;SDS011;42354;53.218;6.564;2023-04-03T01:56:50;3.47;;;1.20;;
56455;SDS011;42354;53.218;6.564;2023-04-03T01:59:15;3.30;;;1.00;;
56455;SDS011;42354;53.218;6.564;2023-04-03T02:01:42;4.30;;;1.27;;
56455;SDS011;42354;53.218;6.564;2023-04-03T02:04:10;6.72;;;1.17;;
56455;SDS011;42354;53.218;6.564;2023-04-03T02:06:36;6.07;;;1.38;;
56455;SDS011;42354;53.218;6.564;2023-04-03T02:09:03;5.40;;;1.23;;
56455;SDS011;42354;53.218;6.564;2023-04-03T02:11:29;6.93;;;1.20;;
56455;SDS011;42354;53.218;6.564;2023-04-03T02:13:55;6.35;;;1.30;;
56455;SDS011;42354;53.218;6.564;2023-04-03T02:16:21;6.05;;;1.50;;
56455;SDS011;42354;53.218;6.564;2023-04-03T02:18:46;6.50;;;1.27;;
56455;SDS011;42354;53.218;6.564;2023-04-03T02:21:12;3.85;;;1.20;;
56455;SDS011;42354;53.218;6.564;2023-04-03T02:23:37;7.47;;;1.45;;
56455;SDS011;42354;53.218;6.564;2023-04-03T02:26:06;4.53;;;1.20;;
56455;SDS011;42354;53.218;6.564;2023-04-03T02:28:34;10.85;;;1.90;;
56455;SDS011;42354;53.218;6.564;2023-04-03T02:31:00;4.80;;;1.20;;
56455;SDS011;42354;53.218;6.564;2023-04-03T02:33:25;5.57;;;1.75;;
56455;SDS011;42354;53.218;6.564;2023-04-03T02:35:52;5.38;;;1.58;;
56455;SDS011;42354;53.218;6.564;2023-04-03T02:38:19;5.95;;;1.65;;
56455;SDS011;42354;53.218;6.564;2023-04-03T02:40:44;6.55;;;1.35;;
56455;SDS011;42354;53.218;6.564;2023-04-03T02:43:10;6.13;;;1.40;;
56455;SDS011;42354;53.218;6.564;2023-04-03T02:45:36;10.32;;;1.80;;
56455;SDS011;42354;53.218;6.564;2023-04-03T02:48:01;4.68;;;1.63;;
56455;SDS011;42354;53.218;6.564;2023-04-03T02:50:28;5.70;;;1.50;;
56455;SDS011;42354;53.218;6.564;2023-04-03T02:52:53;4.50;;;1.48;;
56455;SDS011;42354;53.218;6.564;2023-04-03T02:55:19;7.35;;;1.40;;
56455;SDS011;42354;53.218;6.564;2023-04-03T02:57:44;5.88;;;1.30;;
56455;SDS011;42354;53.218;6.564;2023-04-03T03:00:09;4.65;;;1.15;;
56455;SDS011;42354;53.218;6.564;2023-04-03T03:02:35;10.82;;;1.40;;
56455;SDS011;42354;53.218;6.564;2023-04-03T03:05:00;6.13;;;1.48;;
56455;SDS011;42354;53.218;6.564;2023-04-03T03:07:26;8.43;;;1.50;;
56455;SDS011;42354;53.218;6.564;2023-04-03T03:09:52;3.80;;;1.45;;
56455;SDS011;42354;53.218;6.564;2023-04-03T03:12:17;4.20;;;1.20;;
56455;SDS011;42354;53.218;6.564;2023-04-03T03:14:46;8.10;;;1.75;;
56455;SDS011;42354;53.218;6.564;2023-04-03T03:17:12;12.20;;;1.88;;
56455;SDS011;42354;53.218;6.564;2023-04-03T03:19:38;5.25;;;1.27;;
56455;SDS011;42354;53.218;6.564;2023-04-03T03:22:04;8.38;;;2.20;;
56455;SDS011;42354;53.218;6.564;2023-04-03T03:24:29;7.82;;;1.65;;
56455;SDS011;42354;53.218;6.564;2023-04-03T03:26:54;9.75;;;1.50;;
56455;SDS011;42354;53.218;6.564;2023-04-03T03:29:20;7.32;;;1.83;;
56455;SDS011;42354;53.218;6.564;2023-04-03T03:31:45;7.80;;;1.60;;
56455;SDS011;42354;53.218;6.564;2023-04-03T03:34:11;6.50;;;1.70;;
56455;SDS011;42354;53.218;6.564;2023-04-03T03:36:36;5.60;;;1.88;;
56455;SDS011;42354;53.218;6.564;2023-04-03T03:39:02;6.03;;;1.60;;
56455;SDS011;42354;53.218;6.564;2023-04-03T03:41:27;5.78;;;1.70;;
56455;SDS011;42354;53.218;6.564;2023-04-03T03:43:53;4.53;;;1.70;;
56455;SDS011;42354;53.218;6.564;2023-04-03T03:46:18;8.20;;;1.52;;
56455;SDS011;42354;53.218;6.564;2023-04-03T03:48:44;10.73;;;1.70;;
56455;SDS011;42354;53.218;6.564;2023-04-03T03:51:09;4.18;;;1.77;;
56455;SDS011;42354;53.218;6.564;2023-04-03T03:53:35;8.10;;;1.88;;
56455;SDS011;42354;53.218;6.564;2023-04-03T03:56:00;4.57;;;1.52;;
56455;SDS011;42354;53.218;6.564;2023-04-03T03:58:26;13.35;;;2.15;;
56455;SDS011;42354;53.218;6.564;2023-04-03T04:00:52;9.88;;;1.75;;
56455;SDS011;42354;53.218;6.564;2023-04-03T04:03:17;11.70;;;1.73;;
56455;SDS011;42354;53.218;6.564;2023-04-03T04:05:42;9.93;;;1.75;;
56455;SDS011;42354;53.218;6.564;2023-04-03T04:08:08;8.15;;;2.13;;
56455;SDS011;42354;53.218;6.564;2023-04-03T04:10:35;6.53;;;2.00;;
56455;SDS011;42354;53.218;6.564;2023-04-03T04:13:02;8.82;;;1.70;;
56455;SDS011;42354;53.218;6.564;2023-04-03T04:15:27;7.88;;;2.08;;
56455;SDS011;42354;53.218;6.564;2023-04-03T04:17:53;5.25;;;1.60;;
56455;SDS011;42354;53.218;6.564;2023-04-03T04:20:19;11.70;;;2.22;;
56455;SDS011;42354;53.218;6.564;2023-04-03T04:22:44;7.40;;;1.63;;
56455;SDS011;42354;53.218;6.564;2023-04-03T04:25:11;5.10;;;1.67;;
56455;SDS011;42354;53.218;6.564;2023-04-03T04:27:36;7.10;;;2.17;;
56455;SDS011;42354;53.218;6.564;2023-04-03T04:30:02;5.50;;;1.75;;
56455;SDS011;42354;53.218;6.564;2023-04-03T04:32:28;7.20;;;1.83;;
56455;SDS011;42354;53.218;6.564;2023-04-03T04:34:54;9.85;;;2.15;;
56455;SDS011;42354;53.218;6.564;2023-04-03T04:37:19;8.55;;;2.03;;
56455;SDS011;42354;53.218;6.564;2023-04-03T04:39:47;8.18;;;1.80;;
56455;SDS011;42354;53.218;6.564;2023-04-03T04:42:12;9.60;;;2.13;;
56455;SDS011;42354;53.218;6.564;2023-04-03T04:44:38;4.90;;;1.88;;
56455;SDS011;42354;53.218;6.564;2023-04-03T04:47:04;13.65;;;2.60;;
56455;SDS011;42354;53.218;6.564;2023-04-03T04:49:30;8.23;;;2.30;;
56455;SDS011;42354;53.218;6.564;2023-04-03T04:51:56;5.65;;;2.05;;
56455;SDS011;42354;53.218;6.564;2023-04-03T04:54:22;7.15;;;2.08;;
56455;SDS011;42354;53.218;6.564;2023-04-03T04:56:47;7.80;;;2.65;;
56455;SDS011;42354;53.218;6.564;2023-04-03T04:59:13;9.35;;;3.00;;
56455;SDS011;42354;53.218;6.564;2023-04-03T05:01:38;12.32;;;2.47;;
56455;SDS011;42354;53.218;6.564;2023-04-03T05:04:06;10.25;;;2.50;;
56455;SDS011;42354;53.218;6.564;2023-04-03T05:06:32;11.60;;;2.97;;
56455;SDS011;42354;53.218;6.564;2023-04-03T05:08:58;11.05;;;3.00;;
56455;SDS011;42354;53.218;6.564;2023-04-03T05:11:24;11.48;;;3.15;;
56455;SDS011;42354;53.218;6.564;2023-04-03T05:13:50;13.02;;;2.60;;
56455;SDS011;42354;53.218;6.564;2023-04-03T05:16:16;9.30;;;2.33;;
56455;SDS011;42354;53.218;6.564;2023-04-03T05:18:41;8.88;;;2.85;;
56455;SDS011;42354;53.218;6.564;2023-04-03T05:21:06;10.88;;;3.13;;
56455;SDS011;42354;53.218;6.564;2023-04-03T05:23:32;13.30;;;2.67;;
56455;SDS011;42354;53.218;6.564;2023-04-03T05:25:57;8.32;;;2.60;;
56455;SDS011;42354;53.218;6.564;2023-04-03T05:28:23;8.80;;;2.65;;
56455;SDS011;42354;53.218;6.564;2023-04-03T05:30:55;12.00;;;3.13;;
56455;SDS011;42354;53.218;6.564;2023-04-03T05:33:23;9.57;;;2.22;;
56455;SDS011;42354;53.218;6.564;2023-04-03T05:35:51;7.32;;;2.38;;
56455;SDS011;42354;53.218;6.564;2023-04-03T05:38:16;10.35;;;2.00;;
56455;SDS011;42354;53.218;6.564;2023-04-03T05:40:42;7.55;;;2.30;;
56455;SDS011;42354;53.218;6.564;2023-04-03T05:43:10;7.32;;;2.10;;
56455;SDS011;42354;53.218;6.564;2023-04-03T05:45:35;8.85;;;2.40;;
56455;SDS011;42354;53.218;6.564;2023-04-03T05:48:01;9.13;;;2.22;;
56455;SDS011;42354;53.218;6.564;2023-04-03T05:50:26;12.23;;;2.58;;
56455;SDS011;42354;53.218;6.564;2023-04-03T05:52:52;7.35;;;2.20;;
56455;SDS011;42354;53.218;6.564;2023-04-03T05:55:21;8.25;;;2.45;;
56455;SDS011;42354;53.218;6.564;2023-04-03T05:57:46;10.23;;;2.45;;
56455;SDS011;42354;53.218;6.564;2023-04-03T06:00:14;7.32;;;2.10;;
56455;SDS011;42354;53.218;6.564;2023-04-03T06:02:40;8.63;;;2.33;;
56455;SDS011;42354;53.218;6.564;2023-04-03T06:05:06;7.72;;;2.25;;
56455;SDS011;42354;53.218;6.564;2023-04-03T06:07:33;14.07;;;2.70;;
56455;SDS011;42354;53.218;6.564;2023-04-03T06:10:00;8.15;;;2.60;;
56455;SDS011;42354;53.218;6.564;2023-04-03T06:12:26;6.07;;;2.22;;
56455;SDS011;42354;53.218;6.564;2023-04-03T06:14:53;11.38;;;2.38;;
56455;SDS011;42354;53.218;6.564;2023-04-03T06:17:19;21.15;;;2.50;;
56455;SDS011;42354;53.218;6.564;2023-04-03T06:19:45;11.20;;;1.95;;
56455;SDS011;42354;53.218;6.564;2023-04-03T06:22:10;10.93;;;2.50;;
56455;SDS011;42354;53.218;6.564;2023-04-03T06:24:36;8.77;;;2.33;;
56455;SDS011;42354;53.218;6.564;2023-04-03T06:27:03;9.30;;;1.90;;
56455;SDS011;42354;53.218;6.564;2023-04-03T06:29:29;7.10;;;2.40;;
56455;SDS011;42354;53.218;6.564;2023-04-03T06:31:54;12.30;;;2.47;;
56455;SDS011;42354;53.218;6.564;2023-04-03T06:34:20;7.63;;;2.15;;
56455;SDS011;42354;53.218;6.564;2023-04-03T06:36:46;9.27;;;2.50;;
56455;SDS011;42354;53.218;6.564;2023-04-03T06:39:13;12.50;;;2.42;;
56455;SDS011;42354;53.218;6.564;2023-04-03T06:41:40;11.80;;;2.55;;
56455;SDS011;42354;53.218;6.564;2023-04-03T06:44:06;5.75;;;2.30;;
56455;SDS011;42354;53.218;6.564;2023-04-03T06:46:36;11.57;;;2.25;;
56455;SDS011;42354;53.218;6.564;2023-04-03T06:49:02;4.90;;;2.08;;
56455;SDS011;42354;53.218;6.564;2023-04-03T06:51:33;8.35;;;2.28;;
56455;SDS011;42354;53.218;6.564;2023-04-03T06:54:00;8.85;;;2.65;;
56455;SDS011;42354;53.218;6.564;2023-04-03T06:56:27;8.68;;;2.65;;
56455;SDS011;42354;53.218;6.564;2023-04-03T06:58:56;9.57;;;2.55;;
56455;SDS011;42354;53.218;6.564;2023-04-03T07:01:24;8.80;;;2.22;;
56455;SDS011;42354;53.218;6.564;2023-04-03T07:03:52;5.40;;;2.45;;
56455;SDS011;42354;53.218;6.564;2023-04-03T07:06:18;10.27;;;2.05;;
56455;SDS011;42354;53.218;6.564;2023-04-03T07:08:44;7.63;;;2.03;;
56455;SDS011;42354;53.218;6.564;2023-04-03T07:11:10;12.98;;;2.25;;
56455;SDS011;42354;53.218;6.564;2023-04-03T07:13:37;10.25;;;2.60;;
56455;SDS011;42354;53.218;6.564;2023-04-03T07:16:04;8.35;;;2.05;;
56455;SDS011;42354;53.218;6.564;2023-04-03T07:18:30;10.68;;;2.72;;
56455;SDS011;42354;53.218;6.564;2023-04-03T07:20:56;10.65;;;2.50;;
56455;SDS011;42354;53.218;6.564;2023-04-03T07:23:22;9.43;;;2.22;;
56455;SDS011;42354;53.218;6.564;2023-04-03T07:25:51;12.15;;;2.45;;
56455;SDS011;42354;53.218;6.564;2023-04-03T07:28:19;7.68;;;1.95;;
56455;SDS011;42354;53.218;6.564;2023-04-03T07:30:46;10.65;;;2.28;;
56455;SDS011;42354;53.218;6.564;2023-04-03T07:33:14;8.15;;;2.17;;
56455;SDS011;42354;53.218;6.564;2023-04-03T07:35:42;10.50;;;2.03;;
56455;SDS011;42354;53.218;6.564;2023-04-03T07:38:08;6.97;;;1.75;;
56455;SDS011;42354;53.218;6.564;2023-04-03T07:40:34;10.20;;;2.33;;
56455;SDS011;42354;53.218;6.564;2023-04-03T07:42:59;7.95;;;2.17;;
56455;SDS011;42354;53.218;6.564;2023-04-03T07:45:25;5.90;;;1.90;;
56455;SDS011;42354;53.218;6.564;2023-04-03T07:47:52;7.95;;;1.95;;
56455;SDS011;42354;53.218;6.564;2023-04-03T07:50:18;6.25;;;2.00;;
56455;SDS011;42354;53.218;6.564;2023-04-03T07:52:43;8.05;;;2.00;;
56455;SDS011;42354;53.218;6.564;2023-04-03T07:55:10;5.80;;;1.60;;
56455;SDS011;42354;53.218;6.564;2023-04-03T07:57:36;6.45;;;1.90;;
56455;SDS011;42354;53.218;6.564;2023-04-03T08:00:03;5.57;;;1.77;;
56455;SDS011;42354;53.218;6.564;2023-04-03T08:02:29;7.20;;;1.83;;
56455;SDS011;42354;53.218;6.564;2023-04-03T08:04:57;9.95;;;1.80;;
56455;SDS011;42354;53.218;6.564;2023-04-03T08:07:22;7.18;;;1.80;;
56455;SDS011;42354;53.218;6.564;2023-04-03T08:09:48;6.82;;;2.15;;
56455;SDS011;42354;53.218;6.564;2023-04-03T08:12:14;6.55;;;1.73;;
56455;SDS011;42354;53.218;6.564;2023-04-03T08:14:39;8.10;;;2.08;;
56455;SDS011;42354;53.218;6.564;2023-04-03T08:17:05;6.93;;;1.98;;
56455;SDS011;42354;53.218;6.564;2023-04-03T08:19:34;8.73;;;1.88;;
56455;SDS011;42354;53.218;6.564;2023-04-03T08:22:00;8.43;;;2.00;;
56455;SDS011;42354;53.218;6.564;2023-04-03T08:24:27;10.80;;;2.05;;
56455;SDS011;42354;53.218;6.564;2023-04-03T08:26:55;6.75;;;1.65;;
56455;SDS011;42354;53.218;6.564;2023-04-03T08:29:20;7.05;;;1.60;;
56455;SDS011;42354;53.218;6.564;2023-04-03T08:31:46;5.50;;;1.38;;
56455;SDS011;42354;53.218;6.564;2023-04-03T08:34:12;9.48;;;2.00;;
56455;SDS011;42354;53.218;6.564;2023-04-03T08:36:38;7.65;;;1.67;;
56455;SDS011;42354;53.218;6.564;2023-04-03T08:39:03;8.02;;;1.80;;
56455;SDS011;42354;53.218;6.564;2023-04-03T08:41:33;7.47;;;1.90;;
56455;SDS011;42354;53.218;6.564;2023-04-03T08:44:02;9.07;;;1.85;;
56455;SDS011;42354;53.218;6.564;2023-04-03T08:49:26;7.07;;;1.45;;
56455;SDS011;42354;53.218;6.564;2023-04-03T08:51:56;4.47;;;1.35;;
56455;SDS011;42354;53.218;6.564;2023-04-03T08:54:26;2.65;;;1.08;;
56455;SDS011;42354;53.218;6.564;2023-04-03T08:56:55;3.80;;;0.80;;
56455;SDS011;42354;53.218;6.564;2023-04-03T08:59:27;3.28;;;1.13;;
56455;SDS011;42354;53.218;6.564;2023-04-03T09:01:57;2.72;;;0.95;;
56455;SDS011;42354;53.218;6.564;2023-04-03T09:04:29;4.72;;;1.00;;
56455;SDS011;42354;53.218;6.564;2023-04-03T09:06:58;4.53;;;0.95;;
56455;SDS011;42354;53.218;6.564;2023-04-03T09:09:33;3.15;;;1.10;;
56455;SDS011;42354;53.218;6.564;2023-04-03T09:12:19;6.50;;;1.10;;
56455;SDS011;42354;53.218;6.564;2023-04-03T09:23:18;3.50;;;1.10;;
56455;SDS011;42354;53.218;6.564;2023-04-03T09:25:49;3.85;;;1.40;;
56455;SDS011;42354;53.218;6.564;2023-04-03T09:28:18;2.50;;;0.90;;
56455;SDS011;42354;53.218;6.564;2023-04-03T09:30:43;4.53;;;1.50;;
56455;SDS011;42354;53.218;6.564;2023-04-03T09:33:09;7.70;;;1.10;;
56455;SDS011;42354;53.218;6.564;2023-04-03T09:35:36;4.70;;;1.05;;
56455;SDS011;42354;53.218;6.564;2023-04-03T09:40:37;4.25;;;1.13;;
56455;SDS011;42354;53.218;6.564;2023-04-03T09:45:43;5.28;;;0.90;;
56455;SDS011;42354;53.218;6.564;2023-04-03T10:01:29;3.67;;;1.08;;
56455;SDS011;42354;53.218;6.564;2023-04-03T10:04:08;2.60;;;1.00;;
56455;SDS011;42354;53.218;6.564;2023-04-03T10:06:42;3.13;;;1.00;;
56455;SDS011;42354;53.218;6.564;2023-04-03T10:19:51;3.17;;;0.80;;
56455;SDS011;42354;53.218;6.564;2023-04-03T10:33:28;3.72;;;0.90;;
56455;SDS011;42354;53.218;6.564;2023-04-03T10:42:28;3.58;;;0.52;;
56455;SDS011;42354;53.218;6.564;2023-04-03T10:45:10;2.38;;;0.68;;
56455;SDS011;42354;53.218;6.564;2023-04-03T10:51:27;2.53;;;0.80;;
56455;SDS011;42354;53.218;6.564;2023-04-03T11:01:51;3.22;;;1.00;;
56455;SDS011;42354;53.218;6.564;2023-04-03T11:04:37;1.73;;;0.60;;
56455;SDS011;42354;53.218;6.564;2023-04-03T11:07:14;2.65;;;0.70;;
56455;SDS011;42354;53.218;6.564;2023-04-03T11:09:48;2.08;;;0.60;;
56455;SDS011;42354;53.218;6.564;2023-04-03T11:15:15;1.30;;;0.50;;
56455;SDS011;42354;53.218;6.564;2023-04-03T11:17:54;3.40;;;1.02;;
56455;SDS011;42354;53.218;6.564;2023-04-03T11:20:24;3.78;;;0.77;;
56455;SDS011;42354;53.218;6.564;2023-04-03T11:25:43;4.13;;;0.93;;
56455;SDS011;42354;53.218;6.564;2023-04-03T11:28:12;1.77;;;0.60;;
56455;SDS011;42354;53.218;6.564;2023-04-03T11:36:05;3.88;;;0.80;;
56455;SDS011;42354;53.218;6.564;2023-04-03T11:38:36;1.65;;;0.80;;
56455;SDS011;42354;53.218;6.564;2023-04-03T11:41:08;2.95;;;0.63;;
56455;SDS011;42354;53.218;6.564;2023-04-03T11:43:40;2.97;;;0.60;;
56455;SDS011;42354;53.218;6.564;2023-04-03T11:46:07;2.03;;;0.77;;
56455;SDS011;42354;53.218;6.564;2023-04-03T11:50:59;3.58;;;0.70;;
56455;SDS011;42354;53.218;6.564;2023-04-03T11:53:37;4.15;;;0.73;;
56455;SDS011;42354;53.218;6.564;2023-04-03T11:59:15;2.92;;;0.60;;
56455;SDS011;42354;53.218;6.564;2023-04-03T12:01:43;3.33;;;0.82;;
56455;SDS011;42354;53.218;6.564;2023-04-03T12:04:18;4.93;;;1.30;;
56455;SDS011;42354;53.218;6.564;2023-04-03T12:21:09;1.60;;;0.70;;
56455;SDS011;42354;53.218;6.564;2023-04-03T12:23:55;2.97;;;1.00;;
56455;SDS011;42354;53.218;6.564;2023-04-03T12:29:21;1.58;;;0.70;;
56455;SDS011;42354;53.218;6.564;2023-04-03T12:46:37;3.47;;;0.98;;
56455;SDS011;42354;53.218;6.564;2023-04-03T12:51:55;4.00;;;1.20;;
56455;SDS011;42354;53.218;6.564;2023-04-03T12:54:31;1.70;;;0.73;;
56455;SDS011;42354;53.218;6.564;2023-04-03T12:57:16;4.60;;;0.70;;
56455;SDS011;42354;53.218;6.564;2023-04-03T12:59:43;4.15;;;0.75;;
56455;SDS011;42354;53.218;6.564;2023-04-03T13:04:51;2.13;;;0.77;;
56455;SDS011;42354;53.218;6.564;2023-04-03T13:07:40;4.28;;;0.80;;
56455;SDS011;42354;53.218;6.564;2023-04-03T13:12:34;1.88;;;0.77;;
56455;SDS011;42354;53.218;6.564;2023-04-03T13:15:29;4.25;;;0.77;;
56455;SDS011;42354;53.218;6.564;2023-04-03T13:18:04;1.65;;;0.77;;
56455;SDS011;42354;53.218;6.564;2023-04-03T13:20:31;2.92;;;0.80;;
56455;SDS011;42354;53.218;6.564;2023-04-03T13:23:07;2.50;;;0.80;;
56455;SDS011;42354;53.218;6.564;2023-04-03T13:25:36;3.38;;;0.60;;
56455;SDS011;42354;53.218;6.564;2023-04-03T13:28:10;3.30;;;1.00;;
56455;SDS011;42354;53.218;6.564;2023-04-03T13:30:38;1.58;;;0.70;;
56455;SDS011;42354;53.218;6.564;2023-04-03T13:33:06;1.75;;;0.70;;
56455;SDS011;42354;53.218;6.564;2023-04-03T13:35:45;4.18;;;1.10;;
56455;SDS011;42354;53.218;6.564;2023-04-03T13:40:50;2.03;;;0.80;;
56455;SDS011;42354;53.218;6.564;2023-04-03T13:43:19;2.88;;;0.90;;
56455;SDS011;42354;53.218;6.564;2023-04-03T13:48:42;1.88;;;0.90;;
56455;SDS011;42354;53.218;6.564;2023-04-03T13:53:42;3.67;;;1.02;;
56455;SDS011;42354;53.218;6.564;2023-04-03T13:56:16;1.20;;;0.75;;
56455;SDS011;42354;53.218;6.564;2023-04-03T13:58:57;2.03;;;1.10;;
56455;SDS011;42354;53.218;6.564;2023-04-03T14:01:24;2.30;;;0.80;;
56455;SDS011;42354;53.218;6.564;2023-04-03T14:03:55;5.30;;;1.35;;
56455;SDS011;42354;53.218;6.564;2023-04-03T14:06:22;2.30;;;1.00;;
56455;SDS011;42354;53.218;6.564;2023-04-03T14:08:50;2.65;;;1.00;;
56455;SDS011;42354;53.218;6.564;2023-04-03T14:11:26;3.42;;;0.90;;
56455;SDS011;42354;53.218;6.564;2023-04-03T14:13:55;5.38;;;1.00;;
56455;SDS011;42354;53.218;6.564;2023-04-03T14:16:26;4.63;;;0.90;;
56455;SDS011;42354;53.218;6.564;2023-04-03T14:18:54;1.50;;;0.95;;
56455;SDS011;42354;53.218;6.564;2023-04-03T14:21:20;4.20;;;1.38;;
56455;SDS011;42354;53.218;6.564;2023-04-03T14:23:46;4.22;;;0.80;;
56455;SDS011;42354;53.218;6.564;2023-04-03T14:26:16;4.78;;;0.90;;
56455;SDS011;42354;53.218;6.564;2023-04-03T14:28:48;2.97;;;0.88;;
56455;SDS011;42354;53.218;6.564;2023-04-03T14:31:15;2.65;;;1.08;;
56455;SDS011;42354;53.218;6.564;2023-04-03T14:33:43;4.88;;;1.15;;
56455;SDS011;42354;53.218;6.564;2023-04-03T14:36:16;10.73;;;0.98;;
56455;SDS011;42354;53.218;6.564;2023-04-03T14:38:48;3.47;;;1.00;;
56455;SDS011;42354;53.218;6.564;2023-04-03T14:41:15;3.53;;;1.38;;
56455;SDS011;42354;53.218;6.564;2023-04-03T14:43:42;2.33;;;0.65;;
56455;SDS011;42354;53.218;6.564;2023-04-03T14:46:13;5.68;;;0.70;;
56455;SDS011;42354;53.218;6.564;2023-04-03T14:48:45;3.80;;;0.77;;
56455;SDS011;42354;53.218;6.564;2023-04-03T14:51:11;2.35;;;0.73;;
56455;SDS011;42354;53.218;6.564;2023-04-03T14:53:37;3.38;;;1.00;;
56455;SDS011;42354;53.218;6.564;2023-04-03T14:56:05;2.13;;;0.90;;
56455;SDS011;42354;53.218;6.564;2023-04-03T14:58:47;2.95;;;0.70;;
56455;SDS011;42354;53.218;6.564;2023-04-03T15:01:16;4.72;;;1.00;;
56455;SDS011;42354;53.218;6.564;2023-04-03T15:03:42;4.13;;;0.98;;
56455;SDS011;42354;53.218;6.564;2023-04-03T15:06:11;4.38;;;1.27;;
56455;SDS011;42354;53.218;6.564;2023-04-03T15:08:39;5.88;;;1.05;;
56455;SDS011;42354;53.218;6.564;2023-04-03T15:11:07;5.38;;;0.90;;
56455;SDS011;42354;53.218;6.564;2023-04-03T15:13:33;4.57;;;1.10;;
56455;SDS011;42354;53.218;6.564;2023-04-03T15:16:00;3.08;;;0.77;;
56455;SDS011;42354;53.218;6.564;2023-04-03T15:18:26;4.95;;;0.70;;
56455;SDS011;42354;53.218;6.564;2023-04-03T15:20:55;5.07;;;1.15;;
56455;SDS011;42354;53.218;6.564;2023-04-03T15:23:20;2.65;;;0.80;;
56455;SDS011;42354;53.218;6.564;2023-04-03T15:25:51;4.03;;;1.48;;
56455;SDS011;42354;53.218;6.564;2023-04-03T15:28:22;4.15;;;1.25;;
56455;SDS011;42354;53.218;6.564;2023-04-03T15:31:10;2.45;;;1.10;;
56455;SDS011;42354;53.218;6.564;2023-04-03T15:33:37;4.85;;;1.45;;
56455;SDS011;42354;53.218;6.564;2023-04-03T15:36:04;3.40;;;0.70;;
56455;SDS011;42354;53.218;6.564;2023-04-03T15:38:30;3.33;;;0.65;;
56455;SDS011;42354;53.218;6.564;2023-04-03T15:40:55;4.90;;;0.90;;
56455;SDS011;42354;53.218;6.564;2023-04-03T15:43:21;4.47;;;0.70;;
56455;SDS011;42354;53.218;6.564;2023-04-03T15:45:47;5.00;;;1.00;;
56455;SDS011;42354;53.218;6.564;2023-04-03T15:48:13;1.90;;;0.70;;
56455;SDS011;42354;53.218;6.564;2023-04-03T15:50:40;2.90;;;0.70;;
56455;SDS011;42354;53.218;6.564;2023-04-03T15:53:07;2.05;;;0.82;;
56455;SDS011;42354;53.218;6.564;2023-04-03T15:55:34;4.50;;;0.90;;
56455;SDS011;42354;53.218;6.564;2023-04-03T15:58:02;2.42;;;0.70;;
56455;SDS011;42354;53.218;6.564;2023-04-03T16:00:27;2.78;;;0.75;;
56455;SDS011;42354;53.218;6.564;2023-04-03T16:03:16;3.60;;;0.60;;
56455;SDS011;42354;53.218;6.564;2023-04-03T16:05:41;6.88;;;0.75;;
56455;SDS011;42354;53.218;6.564;2023-04-03T16:08:07;3.35;;;0.70;;
56455;SDS011;42354;53.218;6.564;2023-04-03T16:10:34;2.15;;;0.75;;
56455;SDS011;42354;53.218;6.564;2023-04-03T16:13:00;2.90;;;0.70;;
56455;SDS011;42354;53.218;6.564;2023-04-03T16:15:26;1.55;;;0.65;;
56455;SDS011;42354;53.218;6.564;2023-04-03T16:17:52;2.90;;;0.80;;
56455;SDS011;42354;53.218;6.564;2023-04-03T16:20:19;3.35;;;0.73;;
56455;SDS011;42354;53.218;6.564;2023-04-03T16:22:46;2.88;;;0.82;;
56455;SDS011;42354;53.218;6.564;2023-04-03T16:25:12;3.33;;;0.82;;
56455;SDS011;42354;53.218;6.564;2023-04-03T16:27:39;2.25;;;0.60;;
56455;SDS011;42354;53.218;6.564;2023-04-03T16:30:11;2.28;;;0.60;;
56455;SDS011;42354;53.218;6.564;2023-04-03T16:32:45;2.30;;;0.70;;
56455;SDS011;42354;53.218;6.564;2023-04-03T16:35:13;1.30;;;0.60;;
56455;SDS011;42354;53.218;6.564;2023-04-03T16:37:40;3.17;;;0.85;;
56455;SDS011;42354;53.218;6.564;2023-04-03T16:40:07;3.65;;;1.00;;
56455;SDS011;42354;53.218;6.564;2023-04-03T16:42:35;2.20;;;0.65;;
56455;SDS011;42354;53.218;6.564;2023-04-03T16:45:00;3.28;;;1.00;;
56455;SDS011;42354;53.218;6.564;2023-04-03T16:47:28;5.50;;;0.80;;
56455;SDS011;42354;53.218;6.564;2023-04-03T16:50:01;3.33;;;0.90;;
56455;SDS011;42354;53.218;6.564;2023-04-03T16:52:29;3.83;;;1.00;;
56455;SDS011;42354;53.218;6.564;2023-04-03T16:54:54;3.85;;;1.00;;
56455;SDS011;42354;53.218;6.564;2023-04-03T16:57:20;2.92;;;0.60;;
56455;SDS011;42354;53.218;6.564;2023-04-03T16:59:46;1.73;;;0.63;;
56455;SDS011;42354;53.218;6.564;2023-04-03T17:02:15;2.97;;;0.80;;
56455;SDS011;42354;53.218;6.564;2023-04-03T17:04:40;5.65;;;1.10;;
56455;SDS011;42354;53.218;6.564;2023-04-03T17:07:06;2.50;;;0.70;;
56455;SDS011;42354;53.218;6.564;2023-04-03T17:09:32;2.83;;;0.80;;
56455;SDS011;42354;53.218;6.564;2023-04-03T17:11:58;4.95;;;0.70;;